Time;durP1;ratioP1;P1;durP2;ratioP2;P2;SDS_P1;SDS_P2;PMS_P1;PMS_P2;Temp;Humidity;BMP_temperature;BMP_pressure;BME280_temperature;BME280_humidity;BME280_pressure;Samples;Min_cycle;Max_cycle;Signal;HPM_P1;HPM_P2
2021/06/09 00:00:12;;;;;;;10.93;5.05;;;;;;;15.62;76.34;99044.50;129816;1093;22542;-54
2021/06/09 00:02:40;;;;;;;6.85;4.75;;;;;;;15.60;76.25;99043.17;129714;1093;113992;-54
2021/06/09 00:05:09;;;;;;;7.08;4.53;;;;;;;15.58;75.86;99037.20;129774;1092;22563;-54
2021/06/09 00:07:38;;;;;;;5.85;4.65;;;;;;;15.54;75.81;99035.02;129779;1093;114139;-54
2021/06/09 00:10:07;;;;;;;6.90;5.23;;;;;;;15.48;75.80;99036.21;129895;1093;22513;-53
2021/06/09 00:12:35;;;;;;;7.90;5.77;;;;;;;15.46;76.26;99041.19;129705;1093;113832;-54
2021/06/09 00:15:09;;;;;;;7.80;5.90;;;;;;;15.41;76.05;99034.98;129778;1093;22573;-54
2021/06/09 00:17:38;;;;;;;7.98;5.35;;;;;;;15.33;76.04;99041.16;129790;1093;22548;-54
2021/06/09 00:20:10;;;;;;;9.38;5.75;;;;;;;15.27;76.01;99039.63;129763;1093;113762;-54
2021/06/09 00:22:38;;;;;;;8.75;5.38;;;;;;;15.20;76.36;99038.07;129797;1093;23416;-54
2021/06/09 00:25:13;;;;;;;6.28;5.35;;;;;;;15.15;76.80;99043.63;129711;1093;113568;-54
2021/06/09 00:27:43;;;;;;;5.53;5.03;;;;;;;15.11;76.67;99039.88;129849;1093;22495;-54
2021/06/09 00:30:13;;;;;;;7.65;4.98;;;;;;;15.09;76.71;99038.55;129840;1093;22517;-54
2021/06/09 00:32:41;;;;;;;5.60;5.05;;;;;;;15.07;76.87;99044.33;129751;1093;114100;-55
2021/06/09 00:35:10;;;;;;;7.13;5.28;;;;;;;15.07;76.96;99035.28;129862;1093;23354;-54
2021/06/09 00:37:38;;;;;;;7.13;5.65;;;;;;;15.06;77.10;99039.95;129713;1093;114118;-54
2021/06/09 00:40:08;;;;;;;9.20;5.63;;;;;;;15.06;77.25;99039.95;129873;1092;22536;-65
2021/06/09 00:42:36;;;;;;;7.30;5.93;;;;;;;15.07;77.30;99035.28;129772;1092;113680;-64
2021/06/09 00:45:06;;;;;;;6.68;5.50;;;;;;;15.04;76.81;99028.45;129774;1092;22569;-65
2021/06/09 00:47:34;;;;;;;14.53;5.45;;;;;;;15.01;76.98;99031.79;129923;1092;22605;-65
2021/06/09 00:50:02;;;;;;;9.05;5.90;;;;;;;14.95;76.70;99027.52;129694;1092;113943;-65
2021/06/09 00:52:31;;;;;;;9.18;5.90;;;;;;;14.90;76.68;99022.10;129766;1093;22579;-64
2021/06/09 00:54:59;;;;;;;10.65;5.95;;;;;;;14.83;76.28;99022.50;129781;1093;113936;-64
2021/06/09 00:57:29;;;;;;;8.73;5.43;;;;;;;14.76;76.56;99013.81;129785;1092;22760;-64
2021/06/09 00:59:57;;;;;;;8.80;5.75;;;;;;;14.69;76.12;99024.36;129782;1093;22571;-64
2021/06/09 01:02:26;;;;;;;9.05;5.15;;;;;;;14.64;76.58;99020.86;129678;1093;113848;-64
2021/06/09 01:04:55;;;;;;;6.93;5.65;;;;;;;14.58;76.90;99013.81;129830;1092;22539;-64
2021/06/09 01:07:23;;;;;;;7.75;5.40;;;;;;;14.52;76.83;99013.09;129677;1093;113811;-64
2021/06/09 01:09:52;;;;;;;8.35;6.05;;;;;;;14.47;77.33;99015.89;129827;1093;22510;-64
2021/06/09 01:12:20;;;;;;;7.63;5.23;;;;;;;14.44;77.43;99017.30;129733;1093;22558;-64
2021/06/09 01:14:49;;;;;;;13.10;5.80;;;;;;;14.42;77.21;99019.55;129693;1093;114675;-64
2021/06/09 01:17:18;;;;;;;10.80;5.63;;;;;;;14.38;77.10;99014.91;129772;1093;22573;-65
2021/06/09 01:19:46;;;;;;;8.73;6.70;;;;;;;14.34;77.49;99022.89;129759;1092;113767;-64
2021/06/09 01:22:15;;;;;;;9.73;5.30;;;;;;;14.31;77.56;99017.99;129894;1093;23054;-64
2021/06/09 01:24:43;;;;;;;6.90;5.55;;;;;;;14.28;77.61;99018.61;129701;1093;113851;-64
2021/06/09 01:27:12;;;;;;;7.88;5.90;;;;;;;14.24;77.82;99023.04;129734;1092;22555;-64
2021/06/09 01:29:41;;;;;;;9.55;5.85;;;;;;;14.23;77.97;99026.07;129835;1093;22527;-64
2021/06/09 01:32:09;;;;;;;9.53;5.40;;;;;;;14.23;78.14;99024.14;129708;1092;113758;-65
2021/06/09 01:34:38;;;;;;;6.10;5.45;;;;;;;14.22;78.21;99027.17;129754;1093;22594;-65
2021/06/09 01:37:06;;;;;;;7.85;5.25;;;;;;;14.24;78.13;99024.96;129679;1093;113916;-65
2021/06/09 01:39:34;;;;;;;10.43;5.60;;;;;;;14.24;78.08;99036.73;129734;1093;22560;-65
2021/06/09 01:42:03;;;;;;;6.90;5.93;;;;;;;14.23;77.82;99028.81;129781;1091;22538;-66
2021/06/09 01:44:32;;;;;;;6.85;5.78;;;;;;;14.19;78.02;99034.05;129659;1093;113774;-64
2021/06/09 01:47:00;;;;;;;6.55;5.60;;;;;;;14.17;78.39;99039.01;129794;1093;22570;-65
2021/06/09 01:49:28;;;;;;;10.98;6.15;;;;;;;14.15;77.99;99046.70;129620;1093;113798;-65
2021/06/09 01:51:57;;;;;;;6.90;5.30;;;;;;;14.13;78.09;99037.98;129817;1093;22531;-65
2021/06/09 01:54:26;;;;;;;7.88;6.05;;;;;;;14.11;77.61;99042.94;129852;1092;23697;-64
2021/06/09 01:56:54;;;;;;;7.90;6.50;;;;;;;14.09;77.93;99053.37;129724;1092;113505;-65
2021/06/09 01:59:23;;;;;;;9.48;5.80;;;;;;;14.06;78.35;99042.98;129735;1092;22550;-64
2021/06/09 02:01:51;;;;;;;8.65;5.38;;;;;;;14.07;78.66;99050.09;129651;1093;113960;-64
2021/06/09 02:04:21;;;;;;;6.68;5.65;;;;;;;14.09;78.52;99048.70;129739;1093;22525;-65
2021/06/09 02:06:50;;;;;;;10.30;6.58;;;;;;;14.10;78.83;99046.78;129749;1092;113343;-64
2021/06/09 02:09:18;;;;;;;7.93;6.18;;;;;;;14.11;78.77;99057.45;129812;1093;22534;-64
2021/06/09 02:11:47;;;;;;;9.58;5.80;;;;;;;14.11;78.59;99046.49;129777;1093;22563;-64
2021/06/09 02:14:16;;;;;;;8.03;5.70;;;;;;;14.13;78.87;99048.94;129708;1093;113889;-64
2021/06/09 02:16:46;;;;;;;8.63;5.40;;;;;;;14.15;79.16;99049.44;129869;1093;22638;-64
2021/06/09 02:19:15;;;;;;;7.55;6.03;;;;;;;14.19;79.27;99057.89;129635;1093;114385;-64
2021/06/09 02:21:43;;;;;;;9.48;5.60;;;;;;;14.24;79.60;99053.17;129923;1092;23285;-64
2021/06/09 02:24:12;;;;;;;7.03;5.83;;;;;;;14.31;79.90;99050.06;129740;1093;22738;-64
2021/06/09 02:26:41;;;;;;;7.58;5.93;;;;;;;14.36;80.14;99048.09;129752;1093;113771;-65
2021/06/09 02:29:11;;;;;;;7.38;6.20;;;;;;;14.44;80.30;99047.45;129916;1093;22520;-64
2021/06/09 02:31:43;;;;;;;11.00;5.73;;;;;;;14.53;80.06;99053.10;129638;1093;113765;-64
2021/06/09 02:34:20;;;;;;;6.80;5.73;;;;;;;14.62;80.57;99047.76;129815;1092;22566;-64
2021/06/09 02:36:49;;;;;;;8.07;5.97;;;;;;;14.70;80.57;99041.63;129680;1093;114986;-64
2021/06/09 02:39:19;;;;;;;7.80;5.53;;;;;;;14.78;80.67;99044.50;129435;1093;23461;-62
2021/06/09 02:41:48;;;;;;;8.27;6.67;;;;;;;14.88;80.36;99046.27;125252;1093;22796;-62
2021/06/09 02:44:17;;;;;;;9.98;6.75;;;;;;;14.95;80.09;99035.75;129683;1092;114815;-62
2021/06/09 02:46:48;;;;;;;7.50;6.05;;;;;;;15.03;80.08;99040.55;129803;1093;22572;-63
2021/06/09 02:49:18;;;;;;;9.45;6.50;;;;;;;15.11;79.95;99037.14;129695;1093;113683;-62
2021/06/09 02:52:00;;;;;;;14.63;6.25;;;;;;;15.21;79.75;99044.38;129774;1093;22509;-62
2021/06/09 02:54:43;;;;;;;8.53;6.15;;;;;;;15.28;79.54;99033.02;129753;1091;22600;-62
2021/06/09 02:57:20;;;;;;;9.65;6.38;;;;;;;15.37;79.50;99036.70;129647;1093;113803;-63
2021/06/09 03:00:12;;;;;;;10.03;6.98;;;;;;;15.45;79.12;99038.73;129790;1092;22565;-61
2021/06/09 03:02:59;;;;;;;11.85;6.65;;;;;;;15.53;79.16;99047.11;129661;1093;113791;-60
2021/06/09 03:05:30;;;;;;;8.75;6.00;;;;;;;15.60;78.94;99049.48;129802;1093;22606;-60
2021/06/09 03:08:38;;;;;;;12.95;6.73;;;;;;;15.67;78.57;99040.86;129701;1093;113606;-61
2021/06/09 03:11:30;;;;;;;8.33;6.83;;;;;;;15.77;78.70;99048.90;129290;1096;23724;-61
2021/06/09 03:14:04;;;;;;;11.20;6.80;;;;;;;15.85;78.67;99051.77;128392;1098;113898;-61
2021/06/09 03:16:53;;;;;;;11.38;6.78;;;;;;;15.92;78.73;99048.61;128490;1099;22572;-61
2021/06/09 03:19:31;;;;;;;11.53;7.58;;;;;;;15.98;78.37;99050.15;128442;1100;114314;-61
2021/06/09 03:22:03;;;;;;;14.35;7.43;;;;;;;16.03;78.60;99055.53;128491;1099;22611;-60
2021/06/09 03:24:42;;;;;;;11.95;6.85;;;;;;;16.11;78.57;99051.27;128568;1100;22573;-61
2021/06/09 03:27:22;;;;;;;13.50;7.93;;;;;;;16.17;78.39;99053.59;128453;1098;113848;-62
2021/06/09 03:29:54;;;;;;;12.13;6.55;;;;;;;16.24;78.17;99053.20;128541;1100;22654;-62
2021/06/09 03:32:44;;;;;;;7.28;6.58;;;;;;;16.30;78.01;99045.67;128403;1099;114841;-62
2021/06/09 03:35:21;;;;;;;7.90;6.25;;;;;;;16.39;77.98;99049.31;128551;1100;22591;-62
2021/06/09 03:37:52;;;;;;;9.23;6.03;;;;;;;16.46;77.96;99045.00;128343;1098;113891;-62
2021/06/09 03:40:24;;;;;;;8.65;5.85;;;;;;;16.53;77.73;99045.42;128550;1099;22627;-58
2021/06/09 03:42:58;;;;;;;9.13;6.35;;;;;;;16.57;77.60;99051.94;129027;1096;113902;-57
2021/06/09 03:45:27;;;;;;;6.88;5.45;;;;;;;16.62;77.39;99050.98;129310;1096;23579;-57
2021/06/09 03:47:56;;;;;;;6.53;5.93;;;;;;;16.65;77.06;99047.66;129307;1096;22590;-57
2021/06/09 03:50:25;;;;;;;7.68;6.38;;;;;;;16.67;77.15;99050.10;129212;1093;113788;-57
2021/06/09 03:52:53;;;;;;;6.80;6.00;;;;;;;16.73;76.92;99051.63;129741;1092;22565;-58
2021/06/09 03:55:23;;;;;;;10.88;6.13;;;;;;;16.77;77.37;99058.93;129674;1092;113239;-57
2021/06/09 03:57:52;;;;;;;10.25;7.15;;;;;;;16.83;77.25;99060.45;129429;1093;22578;-57
2021/06/09 04:00:22;;;;;;;8.35;6.63;;;;;;;16.89;77.20;99063.89;129856;1093;23410;-58
2021/06/09 04:02:50;;;;;;;7.18;6.48;;;;;;;16.94;76.93;99067.34;129650;1093;114183;-58
2021/06/09 04:05:19;;;;;;;9.10;5.90;;;;;;;16.99;77.01;99065.61;129774;1093;23001;-57
2021/06/09 04:07:47;;;;;;;6.85;5.95;;;;;;;17.03;77.07;99064.66;129699;1092;113908;-57
2021/06/09 04:10:17;;;;;;;8.30;6.48;;;;;;;17.12;77.22;99073.00;129783;1093;22506;-57
2021/06/09 04:12:46;;;;;;;6.98;6.25;;;;;;;17.19;77.03;99071.42;129803;1093;23028;-57
2021/06/09 04:15:17;;;;;;;6.88;6.18;;;;;;;17.25;76.66;99072.94;129716;1093;113508;-57
2021/06/09 04:17:45;;;;;;;11.95;5.78;;;;;;;17.31;76.62;99074.42;129808;1093;23467;-57
2021/06/09 04:20:23;;;;;;;7.30;6.43;;;;;;;17.38;76.62;99076.75;129684;1092;115108;-57
2021/06/09 04:22:52;;;;;;;7.23;5.98;;;;;;;17.43;76.35;99081.33;129732;1093;22532;-58
2021/06/09 04:25:21;;;;;;;9.70;6.68;;;;;;;17.48;75.85;99081.99;129649;1092;116919;-58
2021/06/09 04:27:49;;;;;;;8.23;6.08;;;;;;;17.53;76.03;99076.37;129851;1092;23275;-58
2021/06/09 04:30:21;;;;;;;6.85;5.95;;;;;;;17.58;75.56;99075.43;129705;1093;22583;-57
2021/06/09 04:32:52;;;;;;;15.80;6.73;;;;;;;17.61;75.33;99072.02;129643;1093;114921;-58
2021/06/09 04:35:28;;;;;;;10.33;6.35;;;;;;;17.62;75.19;99074.47;129763;1092;22554;-58
2021/06/09 04:37:58;;;;;;;11.25;7.10;;;;;;;17.66;75.37;99072.75;129800;1092;114776;-58
2021/06/09 04:40:27;;;;;;;7.68;5.95;;;;;;;17.70;75.41;99075.69;129796;1092;23419;-58
2021/06/09 04:42:56;;;;;;;14.73;6.98;;;;;;;17.74;75.31;99070.38;129757;1093;114287;-58
2021/06/09 04:45:26;;;;;;;9.63;6.55;;;;;;;17.78;75.15;99066.64;129825;1093;22988;-58
2021/06/09 04:47:54;;;;;;;12.50;6.70;;;;;;;17.83;75.01;99069.27;129951;1092;23280;-57
2021/06/09 04:50:25;;;;;;;11.98;6.93;;;;;;;17.88;74.99;99077.42;129645;1093;114600;-57
2021/06/09 04:52:53;;;;;;;10.83;7.18;;;;;;;17.92;75.12;99074.81;129768;1093;24699;-57
2021/06/09 04:55:22;;;;;;;9.80;6.70;;;;;;;17.97;75.04;99072.75;129698;1093;116366;-58
2021/06/09 04:57:50;;;;;;;7.55;6.75;;;;;;;18.03;74.79;99070.67;129859;1093;22675;-57
2021/06/09 05:00:19;;;;;;;10.18;7.90;;;;;;;18.10;74.85;99072.95;129907;1092;22598;-57
2021/06/09 05:02:48;;;;;;;13.75;7.10;;;;;;;18.17;75.06;99079.65;129736;1093;114245;-58
2021/06/09 05:05:16;;;;;;;8.40;7.20;;;;;;;18.24;74.43;99065.38;129760;1093;23099;-58
2021/06/09 05:07:45;;;;;;;11.93;7.35;;;;;;;18.33;74.21;99071.73;129740;1093;113900;-58
2021/06/09 05:10:13;;;;;;;8.00;6.43;;;;;;;18.43;73.61;99070.64;129840;1091;23007;-58
2021/06/09 05:13:15;;;;;;;7.98;6.68;;;;;;;18.53;73.51;99075.84;129821;1092;22551;-58
2021/06/09 05:15:53;;;;;;;7.90;6.08;;;;;;;18.66;73.20;99072.98;129648;1092;22633;-62
2021/06/09 05:18:23;;;;;;;7.08;5.75;;;;;;;18.82;72.41;99072.52;129747;1093;24956;-62
2021/06/09 05:20:52;;;;;;;7.00;5.63;;;;;;;18.97;71.93;99074.80;129679;1092;116727;-58
2021/06/09 05:23:25;;;;;;;7.50;6.60;;;;;;;19.13;71.45;99075.95;129747;1093;22610;-58
2021/06/09 05:25:54;;;;;;;9.00;6.48;;;;;;;19.29;70.66;99068.80;129714;1092;113953;-58
2021/06/09 05:28:24;;;;;;;15.05;7.33;;;;;;;19.46;70.74;99073.49;129634;1093;22571;-57
2021/06/09 05:30:54;;;;;;;7.35;6.65;;;;;;;19.68;70.41;99084.36;129692;1093;22586;-59
2021/06/09 05:33:23;;;;;;;9.68;7.45;;;;;;;19.86;68.88;99084.31;129632;1093;113268;-57
2021/06/09 05:35:54;;;;;;;8.23;6.35;;;;;;;19.95;68.65;99082.33;129664;1093;22546;-57
2021/06/09 05:38:23;;;;;;;7.10;3.90;;;;;;;20.07;67.55;99076.91;129649;1093;113812;-57
2021/06/09 05:40:53;;;;;;;5.50;4.75;;;;;;;20.19;67.04;99081.77;129842;1093;22550;-58
2021/06/09 05:43:21;;;;;;;5.25;4.75;;;;;;;20.26;66.17;99091.16;129584;1092;114229;-57
2021/06/09 05:45:50;;;;;;;5.25;4.25;;;;;;;20.28;65.70;99085.30;129727;1093;22578;-57
2021/06/09 05:48:19;;;;;;;7.20;4.38;;;;;;;20.24;65.71;99082.38;129715;1093;22517;-57
2021/06/09 05:50:55;;;;;;;5.15;4.53;;;;;;;20.24;66.09;99076.03;129707;1093;113787;-57
2021/06/09 05:53:26;;;;;;;7.50;5.40;;;;;;;20.26;66.46;99079.28;129741;1093;22517;-58
2021/06/09 05:55:55;;;;;;;10.70;5.10;;;;;;;20.25;65.46;99084.00;129685;1093;115032;-58
2021/06/09 05:58:24;;;;;;;8.13;5.73;;;;;;;20.24;65.70;99076.03;129745;1093;22598;-58
2021/06/09 06:01:09;;;;;;;7.63;5.83;;;;;;;20.20;65.67;99075.09;129782;1092;22563;-58
2021/06/09 06:03:41;;;;;;;6.75;5.23;;;;;;;20.15;65.56;99073.31;129658;1092;113671;-57
2021/06/09 06:06:11;;;;;;;5.30;4.78;;;;;;;20.13;66.05;99072.83;129850;1093;22570;-58
2021/06/09 06:08:42;;;;;;;7.33;4.35;;;;;;;20.15;64.55;99072.50;129661;1093;113828;-57
2021/06/09 06:11:12;;;;;;;8.50;4.65;;;;;;;20.16;64.34;99071.36;129800;1092;23276;-57
2021/06/09 06:13:46;;;;;;;5.48;4.50;;;;;;;20.16;64.39;99074.13;129683;1093;113421;-57
2021/06/09 06:16:15;;;;;;;8.23;4.65;;;;;;;20.18;64.67;99082.91;129812;1092;22881;-57
2021/06/09 06:18:44;;;;;;;10.10;5.23;;;;;;;20.20;64.56;99083.39;129729;1093;22639;-57
2021/06/09 06:21:15;;;;;;;7.60;4.70;;;;;;;20.18;63.49;99078.19;129641;1092;114079;-57
2021/06/09 06:23:44;;;;;;;8.15;5.55;;;;;;;20.16;64.46;99085.19;129731;1093;22921;-57
2021/06/09 06:26:15;;;;;;;5.73;4.60;;;;;;;20.19;64.46;99081.77;129681;1093;113894;-58
2021/06/09 06:28:44;;;;;;;8.48;5.45;;;;;;;20.25;64.66;99084.00;129683;1093;22543;-58
2021/06/09 06:31:19;;;;;;;10.03;6.30;;;;;;;20.30;64.00;99083.02;129774;1092;22566;-58
2021/06/09 06:33:48;;;;;;;5.05;4.53;;;;;;;20.36;63.20;99079.73;129643;1093;114277;-57
2021/06/09 06:36:27;;;;;;;9.25;5.58;;;;;;;20.41;62.97;99085.09;129824;1093;22516;-57
2021/06/09 06:38:55;;;;;;;5.95;4.30;;;;;;;20.44;62.59;99076.13;129645;1093;113640;-57
2021/06/09 06:41:26;;;;;;;5.55;4.80;;;;;;;20.50;62.23;99078.69;129751;1092;22564;-62
2021/06/09 06:43:55;;;;;;;6.55;4.85;;;;;;;20.53;62.12;99067.77;129724;1093;114477;-61
2021/06/09 06:46:23;;;;;;;7.75;5.45;;;;;;;20.53;62.47;99075.26;129755;1092;22541;-62
2021/06/09 06:48:54;;;;;;;5.08;4.58;;;;;;;20.56;62.32;99071.83;129775;1093;23047;-62
2021/06/09 06:51:23;;;;;;;5.10;4.60;;;;;;;20.60;61.66;99065.30;129702;1093;113819;-62
2021/06/09 06:53:56;;;;;;;8.58;5.05;;;;;;;20.67;61.47;99067.52;129699;1093;22593;-62
2021/06/09 06:56:25;;;;;;;5.88;4.35;;;;;;;20.74;61.62;99071.39;129602;1092;113828;-61
2021/06/09 06:58:53;;;;;;;6.88;4.05;;;;;;;20.82;59.85;99069.70;129780;1092;22564;-62
2021/06/09 07:01:24;;;;;;;5.75;4.18;;;;;;;20.85;60.06;99073.75;129704;1092;22575;-61
2021/06/09 07:03:53;;;;;;;2.78;2.58;;;;;;;20.90;59.25;99079.11;129621;1093;114073;-61
2021/06/09 07:06:22;;;;;;;3.50;3.20;;;;;;;20.96;58.89;99084.09;129709;1093;22520;-61
2021/06/09 07:08:50;;;;;;;3.98;3.15;;;;;;;20.99;58.89;99075.11;129611;1093;114898;-61
2021/06/09 07:12:41;;;;;;;5.25;3.50;;;;;;;21.03;59.33;99080.80;125535;1091;24894;-61
2021/06/09 07:15:18;;;;;;;3.78;3.30;;;;;;;21.10;59.55;99075.51;129722;1093;113986;-61
2021/06/09 07:17:47;;;;;;;6.00;3.58;;;;;;;21.16;59.61;99080.52;129776;1092;22533;-62
2021/06/09 07:20:21;;;;;;;7.13;3.63;;;;;;;21.23;58.44;99079.17;129735;1093;113457;-61
2021/06/09 07:22:50;;;;;;;5.13;3.38;;;;;;;21.27;57.88;99082.90;129869;1093;22545;-62
2021/06/09 07:25:18;;;;;;;4.80;3.30;;;;;;;21.27;57.68;99078.17;129774;1093;22521;-61
2021/06/09 07:27:54;;;;;;;3.83;3.48;;;;;;;21.28;57.89;99076.21;129675;1093;113529;-61
2021/06/09 07:30:30;;;;;;;3.18;2.88;;;;;;;21.30;57.02;99079.45;129994;1092;22736;-61
2021/06/09 07:33:03;;;;;;;3.63;3.33;;;;;;;21.31;56.82;99075.53;129702;1092;113483;-61
2021/06/09 07:35:33;;;;;;;6.03;3.53;;;;;;;21.33;57.68;99074.05;129827;1093;22561;-61
2021/06/09 07:38:08;;;;;;;5.13;2.95;;;;;;;21.34;57.51;99078.45;129716;1093;113775;-61
2021/06/09 07:40:38;;;;;;;5.33;3.13;;;;;;;21.39;56.84;99078.22;129816;1093;22579;-58
2021/06/09 07:43:12;;;;;;;4.13;2.95;;;;;;;21.43;56.33;99075.58;129780;1093;23065;-57
2021/06/09 07:45:41;;;;;;;3.13;2.63;;;;;;;21.46;56.41;99081.27;129677;1092;113772;-57
2021/06/09 07:48:10;;;;;;;3.15;2.55;;;;;;;21.52;55.93;99082.66;129790;1093;22504;-57
2021/06/09 07:50:41;;;;;;;5.13;3.13;;;;;;;21.57;54.93;99078.87;129596;1093;113754;-57
2021/06/09 07:53:11;;;;;;;4.88;3.30;;;;;;;21.57;55.87;99067.78;129754;1092;22620;-57
2021/06/09 07:55:43;;;;;;;4.43;3.08;;;;;;;21.64;55.64;99079.11;129692;1092;113758;-58
2021/06/09 07:58:12;;;;;;;4.00;3.10;;;;;;;21.70;55.23;99082.48;129785;1092;23618;-58
2021/06/09 08:00:40;;;;;;;4.03;2.80;;;;;;;21.76;54.98;99093.03;129828;1093;22554;-58
2021/06/09 08:03:08;;;;;;;5.38;2.98;;;;;;;21.81;54.35;99083.66;129657;1092;114054;-57
2021/06/09 08:05:40;;;;;;;7.08;4.20;;;;;;;21.86;54.27;99081.49;129841;1093;23174;-57
2021/06/09 08:08:12;;;;;;;5.10;3.68;;;;;;;21.92;55.11;99078.51;129784;1093;113860;-58
2021/06/09 08:10:43;;;;;;;3.58;2.55;;;;;;;21.97;53.11;99075.49;130033;1093;22749;-58
2021/06/09 08:13:12;;;;;;;6.00;2.80;;;;;;;22.00;53.51;99081.20;129797;1093;22661;-58
2021/06/09 08:15:55;;;;;;;5.33;2.90;;;;;;;22.05;52.08;99083.77;129723;1092;114000;-58
2021/06/09 08:18:24;;;;;;;6.03;3.08;;;;;;;22.05;53.05;99074.63;129772;1093;23782;-57
2021/06/09 08:20:53;;;;;;;4.15;2.60;;;;;;;22.08;52.97;99076.69;129910;1093;113686;-57
2021/06/09 08:23:21;;;;;;;3.58;2.85;;;;;;;22.13;52.99;99073.70;129870;1092;22555;-58
2021/06/09 08:25:49;;;;;;;9.63;2.93;;;;;;;22.18;53.62;99076.26;129725;1093;113563;-57
2021/06/09 08:28:19;;;;;;;3.03;2.80;;;;;;;22.21;53.42;99070.02;129819;1093;22620;-57
2021/06/09 08:30:47;;;;;;;3.30;2.78;;;;;;;22.24;53.64;99080.41;129838;1093;22529;-58
2021/06/09 08:33:16;;;;;;;5.00;2.78;;;;;;;22.30;52.55;99081.81;129769;1093;113865;-58
2021/06/09 08:35:44;;;;;;;4.45;2.50;;;;;;;22.35;51.93;99075.23;129731;1092;22687;-58
2021/06/09 08:38:13;;;;;;;5.85;2.78;;;;;;;22.39;51.73;99085.27;129719;1092;113821;-57
2021/06/09 08:40:41;;;;;;;5.53;2.70;;;;;;;22.41;51.46;99079.38;129790;1093;22539;-62
2021/06/09 08:43:09;;;;;;;3.60;2.63;;;;;;;22.45;52.11;99083.09;129816;1092;22608;-62
2021/06/09 08:45:38;;;;;;;3.15;2.70;;;;;;;22.45;50.12;99075.57;129674;1093;113691;-62
2021/06/09 08:48:06;;;;;;;4.67;3.47;;;;;;;22.51;50.47;99084.45;129770;1092;22605;-63
2021/06/09 08:50:35;;;;;;;4.08;2.38;;;;;;;22.51;50.79;99079.72;129707;1091;113677;-63
2021/06/09 08:53:06;;;;;;;4.50;2.70;;;;;;;22.55;51.23;99086.20;129772;1093;22630;-63
2021/06/09 08:55:35;;;;;;;4.68;2.60;;;;;;;22.58;51.55;99087.48;129742;1092;113774;-63
2021/06/09 08:58:04;;;;;;;3.48;2.80;;;;;;;22.63;50.45;99076.14;129825;1093;23294;-63
2021/06/09 09:00:33;;;;;;;2.98;2.68;;;;;;;22.68;48.56;99072.30;129794;1093;22562;-63
2021/06/09 09:03:02;;;;;;;6.05;3.10;;;;;;;22.68;50.17;99075.08;129744;1093;113410;-63
2021/06/09 09:05:31;;;;;;;3.65;2.78;;;;;;;22.67;49.66;99077.05;129728;1093;22587;-64
2021/06/09 09:08:01;;;;;;;3.73;2.65;;;;;;;22.70;49.97;99061.66;129741;1093;116806;-62
2021/06/09 09:10:29;;;;;;;3.45;2.90;;;;;;;22.73;50.41;99059.00;129821;1093;22626;-66
2021/06/09 09:12:57;;;;;;;4.78;2.83;;;;;;;22.76;50.94;99052.78;129818;1093;23794;-67
2021/06/09 09:15:26;;;;;;;5.30;2.68;;;;;;;22.81;50.14;99058.07;129699;1093;114109;-68
2021/06/09 09:18:02;;;;;;;4.03;2.73;;;;;;;22.85;50.19;99045.11;129841;1093;22507;-67
2021/06/09 09:20:36;;;;;;;5.73;3.20;;;;;;;22.90;49.70;99047.66;129733;1093;114487;-68
2021/06/09 09:23:21;;;;;;;3.63;2.80;;;;;;;22.96;50.66;99048.20;129818;1093;22556;-68
2021/06/09 09:25:54;;;;;;;5.20;2.80;;;;;;;23.02;49.19;99045.99;129696;1093;114318;-67
2021/06/09 09:28:29;;;;;;;3.60;3.00;;;;;;;23.01;48.87;99045.19;129820;1092;22538;-67
2021/06/09 09:31:18;;;;;;;2.95;2.73;;;;;;;22.93;48.73;99051.70;129829;1092;22559;-67
2021/06/09 09:33:46;;;;;;;2.83;2.63;;;;;;;22.85;49.05;99039.55;129744;1093;113379;-67
2021/06/09 09:36:27;;;;;;;3.00;2.70;;;;;;;22.81;49.93;99035.04;129823;1092;22989;-67
2021/06/09 09:38:56;;;;;;;4.75;3.15;;;;;;;22.81;49.75;99035.84;129738;1093;114998;-69
2021/06/09 09:41:34;;;;;;;6.70;3.05;;;;;;;22.84;49.88;99034.34;125476;1093;22778;-69
2021/06/09 09:44:05;;;;;;;5.80;2.63;;;;;;;22.86;49.74;99032.03;129750;1093;113773;-68
2021/06/09 09:46:38;;;;;;;4.45;3.43;;;;;;;22.88;49.43;99022.19;129831;1093;22521;-68
2021/06/09 09:49:14;;;;;;;5.78;3.45;;;;;;;22.87;50.68;99031.68;129772;1092;22574;-68
2021/06/09 09:51:51;;;;;;;3.48;3.10;;;;;;;22.86;50.82;99027.28;129696;1092;113616;-69
2021/06/09 09:54:27;;;;;;;5.90;3.85;;;;;;;22.83;51.16;99013.28;129794;1093;22533;-68
2021/06/09 09:56:56;;;;;;;7.30;3.73;;;;;;;22.79;52.40;99026.27;129711;1092;114692;-68
2021/06/09 09:59:28;;;;;;;8.95;3.90;;;;;;;22.75;53.75;99022.55;129821;1092;22602;-68
2021/06/09 10:01:57;;;;;;;7.53;3.25;;;;;;;22.63;54.16;99019.80;129690;1092;113810;-68
2021/06/09 10:04:29;;;;;;;4.33;3.60;;;;;;;22.54;54.85;99017.94;129802;1092;22628;-69
2021/06/09 10:06:59;;;;;;;4.85;3.05;;;;;;;22.46;55.85;99012.53;129855;1093;23123;-68
2021/06/09 10:09:38;;;;;;;4.33;3.28;;;;;;;22.42;56.33;99015.19;129723;1093;113741;-68
2021/06/09 10:12:11;;;;;;;7.13;3.35;;;;;;;22.44;55.03;99015.65;129867;1092;22644;-68
2021/06/09 10:14:51;;;;;;;6.73;3.25;;;;;;;22.47;54.74;99005.81;129649;1093;113788;-67
2021/06/09 10:17:23;;;;;;;6.00;3.35;;;;;;;22.54;54.08;99000.47;129850;1093;22518;-68
2021/06/09 10:19:54;;;;;;;5.08;3.28;;;;;;;22.62;53.94;99005.09;129713;1093;114129;-68
2021/06/09 10:22:23;;;;;;;3.65;3.35;;;;;;;22.73;52.39;99003.45;129821;1093;23351;-69
2021/06/09 10:24:59;;;;;;;8.93;3.58;;;;;;;22.85;52.26;98991.52;129802;1093;22587;-68
2021/06/09 10:27:37;;;;;;;3.27;2.97;;;;;;;22.94;51.50;98989.39;129730;1093;113747;-68
2021/06/09 10:30:21;;;;;;;4.03;3.25;;;;;;;23.01;51.65;98989.61;129820;1091;22549;-67
2021/06/09 10:32:51;;;;;;;5.00;3.55;;;;;;;23.09;52.19;98985.05;129761;1093;113464;-70
2021/06/09 10:35:21;;;;;;;4.48;3.25;;;;;;;23.17;52.66;98982.13;129787;1093;22540;-70
2021/06/09 10:37:49;;;;;;;3.40;3.10;;;;;;;23.25;52.91;98981.16;129734;1093;113774;-69
2021/06/09 10:40:19;;;;;;;9.48;4.50;;;;;;;23.33;52.10;98973.83;129826;1093;22499;-69
2021/06/09 10:42:49;;;;;;;3.60;3.30;;;;;;;23.43;50.92;98989.98;129799;1093;22509;-69
2021/06/09 10:45:18;;;;;;;3.98;3.68;;;;;;;23.51;50.14;98993.81;129692;1093;114690;-69
2021/06/09 10:47:46;;;;;;;4.45;2.88;;;;;;;23.52;48.44;98987.87;129817;1092;22687;-69
2021/06/09 10:50:15;;;;;;;4.53;3.25;;;;;;;23.47;49.24;98988.12;129655;1093;114040;-68
2021/06/09 10:52:43;;;;;;;8.23;3.55;;;;;;;23.40;47.77;98982.35;129833;1093;22523;-68
2021/06/09 10:55:11;;;;;;;7.35;3.63;;;;;;;23.31;48.34;98972.56;129788;1093;22918;-68
2021/06/09 10:57:40;;;;;;;3.85;3.48;;;;;;;23.22;48.84;98981.89;129739;1093;113698;-68
2021/06/09 11:00:11;;;;;;;5.90;3.38;;;;;;;23.17;48.54;98989.66;129786;1093;22732;-68
2021/06/09 11:02:41;;;;;;;5.88;3.23;;;;;;;23.11;49.08;98996.63;129745;1093;113630;-69
2021/06/09 11:05:11;;;;;;;12.35;4.15;;;;;;;23.00;52.72;99001.88;129727;1093;22599;-68
2021/06/09 11:07:44;;;;;;;6.75;4.35;;;;;;;22.79;55.64;98996.53;129680;1092;113312;-68
2021/06/09 11:10:14;;;;;;;6.20;3.58;;;;;;;22.57;56.21;98991.45;129706;1093;22645;-67
2021/06/09 11:12:49;;;;;;;6.48;3.50;;;;;;;22.41;56.68;98991.35;129752;1092;25986;-67
2021/06/09 11:15:22;;;;;;;4.15;3.40;;;;;;;22.27;58.12;98995.66;129657;1092;114272;-68
2021/06/09 11:17:57;;;;;;;7.55;3.50;;;;;;;22.14;58.44;99003.17;129818;1093;22499;-67
2021/06/09 11:20:32;;;;;;;6.90;4.00;;;;;;;21.96;58.62;99002.55;129639;1093;113677;-67
2021/06/09 11:23:11;;;;;;;7.55;3.45;;;;;;;21.78;58.34;98992.86;129716;1092;23086;-67
2021/06/09 11:25:44;;;;;;;5.08;3.43;;;;;;;21.61;58.99;98998.59;129682;1092;113935;-68
2021/06/09 11:28:34;;;;;;;5.55;3.18;;;;;;;21.51;60.59;98994.28;129766;1093;22563;-67
2021/06/09 11:31:31;;;;;;;8.58;4.03;;;;;;;21.41;61.85;98990.00;129721;1093;22649;-67
2021/06/09 11:34:02;;;;;;;6.60;4.50;;;;;;;21.36;62.83;98979.12;129687;1093;113573;-67
2021/06/09 11:36:41;;;;;;;5.95;4.73;;;;;;;21.33;63.11;98979.02;129695;1093;22526;-67
2021/06/09 11:39:19;;;;;;;6.33;3.75;;;;;;;21.35;63.30;98980.27;129736;1093;113739;-68
2021/06/09 11:41:47;;;;;;;5.38;3.30;;;;;;;21.41;62.03;98972.56;129787;1092;22542;-67